sensor_id;sensor_type;location;lat;lon;timestamp;P1;durP1;ratioP1;P2;durP2;ratioP2
7899;SDS011;3995;50.856;4.404;2023-02-28T00:02:20;4.57;;;2.60;;
7899;SDS011;3995;50.856;4.404;2023-02-28T00:04:47;3.90;;;2.80;;
7899;SDS011;3995;50.856;4.404;2023-02-28T00:07:19;3.08;;;2.78;;
7899;SDS011;3995;50.856;4.404;2023-02-28T00:09:46;5.57;;;2.90;;
7899;SDS011;3995;50.856;4.404;2023-02-28T00:12:13;5.05;;;3.25;;
7899;SDS011;3995;50.856;4.404;2023-02-28T00:14:41;5.00;;;3.17;;
7899;SDS011;3995;50.856;4.404;2023-02-28T00:17:08;5.97;;;3.47;;
7899;SDS011;3995;50.856;4.404;2023-02-28T00:19:35;5.25;;;3.15;;
7899;SDS011;3995;50.856;4.404;2023-02-28T00:22:02;4.47;;;3.00;;
7899;SDS011;3995;50.856;4.404;2023-02-28T00:24:31;5.40;;;2.80;;
7899;SDS011;3995;50.856;4.404;2023-02-28T00:26:59;4.70;;;2.90;;
7899;SDS011;3995;50.856;4.404;2023-02-28T00:29:26;2.97;;;2.50;;
7899;SDS011;3995;50.856;4.404;2023-02-28T00:31:53;4.18;;;3.20;;
7899;SDS011;3995;50.856;4.404;2023-02-28T00:34:20;3.78;;;2.78;;
7899;SDS011;3995;50.856;4.404;2023-02-28T00:36:47;3.00;;;2.70;;
7899;SDS011;3995;50.856;4.404;2023-02-28T00:39:14;3.20;;;2.70;;
7899;SDS011;3995;50.856;4.404;2023-02-28T00:41:43;5.32;;;2.70;;
7899;SDS011;3995;50.856;4.404;2023-02-28T00:44:10;3.88;;;2.80;;
7899;SDS011;3995;50.856;4.404;2023-02-28T00:46:37;3.50;;;3.20;;
7899;SDS011;3995;50.856;4.404;2023-02-28T00:49:04;3.33;;;3.03;;
7899;SDS011;3995;50.856;4.404;2023-02-28T00:51:31;7.15;;;3.30;;
7899;SDS011;3995;50.856;4.404;2023-02-28T00:53:58;8.77;;;4.03;;
7899;SDS011;3995;50.856;4.404;2023-02-28T00:56:25;4.25;;;3.50;;
7899;SDS011;3995;50.856;4.404;2023-02-28T00:58:54;7.32;;;3.60;;
7899;SDS011;3995;50.856;4.404;2023-02-28T01:01:21;4.85;;;3.17;;
7899;SDS011;3995;50.856;4.404;2023-02-28T01:03:49;5.43;;;3.72;;
7899;SDS011;3995;50.856;4.404;2023-02-28T01:06:16;6.22;;;3.90;;
7899;SDS011;3995;50.856;4.404;2023-02-28T01:08:44;3.75;;;3.30;;
7899;SDS011;3995;50.856;4.404;2023-02-28T01:11:11;5.55;;;3.50;;
7899;SDS011;3995;50.856;4.404;2023-02-28T01:13:41;4.55;;;3.10;;
7899;SDS011;3995;50.856;4.404;2023-02-28T01:16:10;4.75;;;3.80;;
7899;SDS011;3995;50.856;4.404;2023-02-28T01:18:37;5.63;;;3.75;;
7899;SDS011;3995;50.856;4.404;2023-02-28T01:21:05;3.50;;;2.85;;
7899;SDS011;3995;50.856;4.404;2023-02-28T01:23:35;5.45;;;3.22;;
7899;SDS011;3995;50.856;4.404;2023-02-28T01:26:05;5.15;;;2.95;;
7899;SDS011;3995;50.856;4.404;2023-02-28T01:28:33;3.47;;;2.88;;
7899;SDS011;3995;50.856;4.404;2023-02-28T01:31:01;4.47;;;3.30;;
7899;SDS011;3995;50.856;4.404;2023-02-28T01:33:30;7.28;;;3.45;;
7899;SDS011;3995;50.856;4.404;2023-02-28T01:35:58;3.88;;;3.45;;
7899;SDS011;3995;50.856;4.404;2023-02-28T01:38:26;6.43;;;3.65;;
7899;SDS011;3995;50.856;4.404;2023-02-28T01:40:53;2.53;;;2.33;;
7899;SDS011;3995;50.856;4.404;2023-02-28T01:43:21;4.95;;;2.90;;
7899;SDS011;3995;50.856;4.404;2023-02-28T01:45:50;5.05;;;3.30;;
7899;SDS011;3995;50.856;4.404;2023-02-28T01:48:18;3.70;;;3.10;;
7899;SDS011;3995;50.856;4.404;2023-02-28T01:50:48;2.85;;;2.65;;
7899;SDS011;3995;50.856;4.404;2023-02-28T01:53:16;4.68;;;3.15;;
7899;SDS011;3995;50.856;4.404;2023-02-28T01:55:48;3.63;;;3.05;;
7899;SDS011;3995;50.856;4.404;2023-02-28T01:58:18;3.30;;;2.88;;
7899;SDS011;3995;50.856;4.404;2023-02-28T02:00:46;5.78;;;3.20;;
7899;SDS011;3995;50.856;4.404;2023-02-28T02:03:13;4.63;;;3.20;;
7899;SDS011;3995;50.856;4.404;2023-02-28T02:05:44;11.63;;;3.70;;
7899;SDS011;3995;50.856;4.404;2023-02-28T02:08:16;3.30;;;3.00;;
7899;SDS011;3995;50.856;4.404;2023-02-28T02:10:46;3.55;;;3.00;;
7899;SDS011;3995;50.856;4.404;2023-02-28T02:13:25;4.95;;;3.13;;
7899;SDS011;3995;50.856;4.404;2023-02-28T02:16:01;5.20;;;3.15;;
7899;SDS011;3995;50.856;4.404;2023-02-28T02:18:38;4.35;;;3.40;;
7899;SDS011;3995;50.856;4.404;2023-02-28T02:21:14;3.83;;;3.22;;
7899;SDS011;3995;50.856;4.404;2023-02-28T02:30:31;5.55;;;3.35;;
7899;SDS011;3995;50.856;4.404;2023-02-28T02:33:36;4.80;;;3.60;;
7899;SDS011;3995;50.856;4.404;2023-02-28T02:36:29;5.13;;;3.60;;
7899;SDS011;3995;50.856;4.404;2023-02-28T02:39:03;4.25;;;3.47;;
7899;SDS011;3995;50.856;4.404;2023-02-28T02:41:40;3.90;;;3.50;;
7899;SDS011;3995;50.856;4.404;2023-02-28T02:44:13;4.28;;;3.67;;
7899;SDS011;3995;50.856;4.404;2023-02-28T02:46:48;6.85;;;3.42;;
7899;SDS011;3995;50.856;4.404;2023-02-28T02:49:22;4.85;;;3.70;;
7899;SDS011;3995;50.856;4.404;2023-02-28T02:51:54;5.10;;;3.60;;
7899;SDS011;3995;50.856;4.404;2023-02-28T02:54:24;4.72;;;3.40;;
7899;SDS011;3995;50.856;4.404;2023-02-28T02:56:55;4.03;;;3.28;;
7899;SDS011;3995;50.856;4.404;2023-02-28T02:59:25;4.22;;;3.75;;
7899;SDS011;3995;50.856;4.404;2023-02-28T03:01:55;5.53;;;3.80;;
7899;SDS011;3995;50.856;4.404;2023-02-28T03:04:28;6.00;;;4.13;;
7899;SDS011;3995;50.856;4.404;2023-02-28T03:06:59;8.63;;;3.65;;
7899;SDS011;3995;50.856;4.404;2023-02-28T03:09:26;5.40;;;3.40;;
7899;SDS011;3995;50.856;4.404;2023-02-28T03:11:54;7.00;;;4.22;;
7899;SDS011;3995;50.856;4.404;2023-02-28T03:14:25;4.75;;;3.85;;
7899;SDS011;3995;50.856;4.404;2023-02-28T03:17:06;5.45;;;3.78;;
7899;SDS011;3995;50.856;4.404;2023-02-28T03:19:50;4.43;;;4.03;;
7899;SDS011;3995;50.856;4.404;2023-02-28T03:22:29;3.65;;;3.35;;
7899;SDS011;3995;50.856;4.404;2023-02-28T03:25:07;4.63;;;3.75;;
7899;SDS011;3995;50.856;4.404;2023-02-28T03:27:41;5.60;;;4.40;;
7899;SDS011;3995;50.856;4.404;2023-02-28T03:30:16;4.32;;;3.92;;
7899;SDS011;3995;50.856;4.404;2023-02-28T03:32:53;4.90;;;3.90;;
7899;SDS011;3995;50.856;4.404;2023-02-28T03:35:25;5.45;;;4.05;;
7899;SDS011;3995;50.856;4.404;2023-02-28T03:37:58;4.75;;;3.78;;
7899;SDS011;3995;50.856;4.404;2023-02-28T03:40:32;5.07;;;4.07;;
7899;SDS011;3995;50.856;4.404;2023-02-28T03:43:03;5.15;;;3.92;;
7899;SDS011;3995;50.856;4.404;2023-02-28T03:45:36;8.60;;;4.80;;
7899;SDS011;3995;50.856;4.404;2023-02-28T03:48:06;5.18;;;4.10;;
7899;SDS011;3995;50.856;4.404;2023-02-28T03:50:41;6.32;;;4.00;;
7899;SDS011;3995;50.856;4.404;2023-02-28T03:53:11;8.80;;;4.88;;
7899;SDS011;3995;50.856;4.404;2023-02-28T03:55:41;4.45;;;3.60;;
7899;SDS011;3995;50.856;4.404;2023-02-28T03:58:12;7.45;;;4.78;;
7899;SDS011;3995;50.856;4.404;2023-02-28T04:00:47;9.32;;;4.30;;
7899;SDS011;3995;50.856;4.404;2023-02-28T04:03:17;6.35;;;3.92;;
7899;SDS011;3995;50.856;4.404;2023-02-28T04:05:50;4.55;;;3.90;;
7899;SDS011;3995;50.856;4.404;2023-02-28T04:08:20;6.05;;;4.38;;
7899;SDS011;3995;50.856;4.404;2023-02-28T04:10:50;4.82;;;4.28;;
7899;SDS011;3995;50.856;4.404;2023-02-28T04:13:21;5.35;;;4.18;;
7899;SDS011;3995;50.856;4.404;2023-02-28T04:15:48;5.55;;;4.40;;
7899;SDS011;3995;50.856;4.404;2023-02-28T04:18:16;4.78;;;4.25;;
7899;SDS011;3995;50.856;4.404;2023-02-28T04:20:43;5.18;;;4.63;;
7899;SDS011;3995;50.856;4.404;2023-02-28T04:23:12;6.55;;;4.20;;
7899;SDS011;3995;50.856;4.404;2023-02-28T04:25:39;4.63;;;4.00;;
7899;SDS011;3995;50.856;4.404;2023-02-28T04:28:06;5.30;;;3.70;;
7899;SDS011;3995;50.856;4.404;2023-02-28T04:30:34;6.68;;;5.22;;
7899;SDS011;3995;50.856;4.404;2023-02-28T04:33:02;6.05;;;4.78;;
7899;SDS011;3995;50.856;4.404;2023-02-28T04:35:29;5.00;;;4.50;;
7899;SDS011;3995;50.856;4.404;2023-02-28T04:37:56;12.05;;;4.07;;
7899;SDS011;3995;50.856;4.404;2023-02-28T04:40:25;5.20;;;4.60;;
7899;SDS011;3995;50.856;4.404;2023-02-28T04:42:53;6.00;;;4.70;;
7899;SDS011;3995;50.856;4.404;2023-02-28T04:45:20;4.53;;;4.10;;
7899;SDS011;3995;50.856;4.404;2023-02-28T04:47:47;14.80;;;5.30;;
7899;SDS011;3995;50.856;4.404;2023-02-28T04:50:14;6.45;;;4.45;;
7899;SDS011;3995;50.856;4.404;2023-02-28T04:52:45;7.00;;;3.92;;
7899;SDS011;3995;50.856;4.404;2023-02-28T04:55:12;7.07;;;4.90;;
7899;SDS011;3995;50.856;4.404;2023-02-28T04:57:41;7.90;;;5.10;;
7899;SDS011;3995;50.856;4.404;2023-02-28T05:00:09;4.93;;;4.32;;
7899;SDS011;3995;50.856;4.404;2023-02-28T05:02:40;5.53;;;4.60;;
7899;SDS011;3995;50.856;4.404;2023-02-28T05:05:07;5.60;;;3.78;;
7899;SDS011;3995;50.856;4.404;2023-02-28T05:07:35;5.20;;;4.38;;
7899;SDS011;3995;50.856;4.404;2023-02-28T05:10:08;6.65;;;5.25;;
7899;SDS011;3995;50.856;4.404;2023-02-28T05:12:36;5.75;;;4.88;;
7899;SDS011;3995;50.856;4.404;2023-02-28T05:15:10;5.35;;;4.85;;
7899;SDS011;3995;50.856;4.404;2023-02-28T05:17:42;5.28;;;4.78;;
7899;SDS011;3995;50.856;4.404;2023-02-28T05:20:10;5.10;;;4.70;;
7899;SDS011;3995;50.856;4.404;2023-02-28T05:22:38;4.65;;;4.25;;
7899;SDS011;3995;50.856;4.404;2023-02-28T05:25:06;7.90;;;4.65;;
7899;SDS011;3995;50.856;4.404;2023-02-28T05:27:35;5.20;;;4.32;;
7899;SDS011;3995;50.856;4.404;2023-02-28T05:30:10;5.50;;;4.82;;
7899;SDS011;3995;50.856;4.404;2023-02-28T05:32:40;5.55;;;4.18;;
7899;SDS011;3995;50.856;4.404;2023-02-28T05:35:10;5.15;;;4.15;;
7899;SDS011;3995;50.856;4.404;2023-02-28T05:37:41;6.88;;;4.75;;
7899;SDS011;3995;50.856;4.404;2023-02-28T05:40:08;6.32;;;4.53;;
7899;SDS011;3995;50.856;4.404;2023-02-28T05:42:40;5.95;;;5.35;;
7899;SDS011;3995;50.856;4.404;2023-02-28T05:45:08;8.70;;;7.90;;
7899;SDS011;3995;50.856;4.404;2023-02-28T05:47:37;5.28;;;4.47;;
7899;SDS011;3995;50.856;4.404;2023-02-28T05:50:05;9.52;;;4.85;;
7899;SDS011;3995;50.856;4.404;2023-02-28T05:52:34;20.27;;;10.85;;
7899;SDS011;3995;50.856;4.404;2023-02-28T05:55:02;10.93;;;5.60;;
7899;SDS011;3995;50.856;4.404;2023-02-28T05:57:30;5.18;;;4.32;;
7899;SDS011;3995;50.856;4.404;2023-02-28T05:59:57;6.13;;;4.65;;
7899;SDS011;3995;50.856;4.404;2023-02-28T06:02:25;5.22;;;4.72;;
7899;SDS011;3995;50.856;4.404;2023-02-28T06:04:53;5.80;;;4.65;;
7899;SDS011;3995;50.856;4.404;2023-02-28T06:07:20;6.13;;;3.95;;
7899;SDS011;3995;50.856;4.404;2023-02-28T06:09:48;6.20;;;4.88;;
7899;SDS011;3995;50.856;4.404;2023-02-28T06:12:15;7.53;;;5.30;;
7899;SDS011;3995;50.856;4.404;2023-02-28T06:14:42;8.88;;;5.10;;
7899;SDS011;3995;50.856;4.404;2023-02-28T06:17:10;7.80;;;4.72;;
7899;SDS011;3995;50.856;4.404;2023-02-28T06:19:38;4.82;;;4.18;;
7899;SDS011;3995;50.856;4.404;2023-02-28T06:22:06;4.63;;;4.10;;
7899;SDS011;3995;50.856;4.404;2023-02-28T06:24:34;9.40;;;4.30;;
7899;SDS011;3995;50.856;4.404;2023-02-28T06:27:01;6.53;;;5.10;;
7899;SDS011;3995;50.856;4.404;2023-02-28T06:29:30;8.48;;;4.53;;
7899;SDS011;3995;50.856;4.404;2023-02-28T06:31:57;5.68;;;4.60;;
7899;SDS011;3995;50.856;4.404;2023-02-28T06:34:24;8.40;;;4.50;;
7899;SDS011;3995;50.856;4.404;2023-02-28T06:36:54;6.93;;;5.07;;
7899;SDS011;3995;50.856;4.404;2023-02-28T06:39:21;8.98;;;4.93;;
7899;SDS011;3995;50.856;4.404;2023-02-28T06:41:48;10.00;;;4.28;;
7899;SDS011;3995;50.856;4.404;2023-02-28T06:44:17;9.55;;;5.70;;
7899;SDS011;3995;50.856;4.404;2023-02-28T06:46:45;10.07;;;5.00;;
7899;SDS011;3995;50.856;4.404;2023-02-28T06:49:12;5.35;;;4.80;;
7899;SDS011;3995;50.856;4.404;2023-02-28T06:51:40;6.45;;;4.95;;
7899;SDS011;3995;50.856;4.404;2023-02-28T06:54:11;6.22;;;4.85;;
7899;SDS011;3995;50.856;4.404;2023-02-28T06:56:39;5.35;;;4.82;;
7899;SDS011;3995;50.856;4.404;2023-02-28T06:59:07;11.77;;;5.18;;
7899;SDS011;3995;50.856;4.404;2023-02-28T07:01:34;9.55;;;4.50;;
7899;SDS011;3995;50.856;4.404;2023-02-28T07:04:02;9.93;;;4.88;;
7899;SDS011;3995;50.856;4.404;2023-02-28T07:06:31;5.63;;;4.90;;
7899;SDS011;3995;50.856;4.404;2023-02-28T07:08:58;11.80;;;5.43;;
7899;SDS011;3995;50.856;4.404;2023-02-28T07:11:27;17.20;;;5.97;;
7899;SDS011;3995;50.856;4.404;2023-02-28T07:13:55;8.32;;;4.63;;
7899;SDS011;3995;50.856;4.404;2023-02-28T07:16:25;6.25;;;4.90;;
7899;SDS011;3995;50.856;4.404;2023-02-28T07:18:53;6.90;;;4.90;;
7899;SDS011;3995;50.856;4.404;2023-02-28T07:21:20;9.32;;;4.22;;
7899;SDS011;3995;50.856;4.404;2023-02-28T07:23:49;6.28;;;4.35;;
7899;SDS011;3995;50.856;4.404;2023-02-28T07:26:18;6.95;;;4.70;;
7899;SDS011;3995;50.856;4.404;2023-02-28T07:28:47;5.18;;;4.35;;
7899;SDS011;3995;50.856;4.404;2023-02-28T07:31:17;7.10;;;5.00;;
7899;SDS011;3995;50.856;4.404;2023-02-28T07:33:45;8.95;;;5.53;;
7899;SDS011;3995;50.856;4.404;2023-02-28T07:36:13;8.25;;;4.75;;
7899;SDS011;3995;50.856;4.404;2023-02-28T07:38:45;9.45;;;4.90;;
7899;SDS011;3995;50.856;4.404;2023-02-28T07:41:15;7.53;;;4.82;;
7899;SDS011;3995;50.856;4.404;2023-02-28T07:43:42;6.40;;;4.55;;
7899;SDS011;3995;50.856;4.404;2023-02-28T07:46:12;15.13;;;4.78;;
7899;SDS011;3995;50.856;4.404;2023-02-28T07:48:41;10.57;;;4.47;;
7899;SDS011;3995;50.856;4.404;2023-02-28T07:51:08;7.60;;;3.97;;
7899;SDS011;3995;50.856;4.404;2023-02-28T07:53:36;10.50;;;4.53;;
7899;SDS011;3995;50.856;4.404;2023-02-28T07:56:03;8.57;;;3.97;;
7899;SDS011;3995;50.856;4.404;2023-02-28T07:58:31;5.85;;;4.22;;
7899;SDS011;3995;50.856;4.404;2023-02-28T08:01:04;5.18;;;4.05;;
7899;SDS011;3995;50.856;4.404;2023-02-28T08:03:33;7.70;;;4.13;;
7899;SDS011;3995;50.856;4.404;2023-02-28T08:06:02;7.43;;;3.95;;
7899;SDS011;3995;50.856;4.404;2023-02-28T08:08:29;6.65;;;3.83;;
7899;SDS011;3995;50.856;4.404;2023-02-28T08:10:57;5.22;;;3.40;;
7899;SDS011;3995;50.856;4.404;2023-02-28T08:13:26;3.72;;;3.08;;
7899;SDS011;3995;50.856;4.404;2023-02-28T08:15:53;7.85;;;4.95;;
7899;SDS011;3995;50.856;4.404;2023-02-28T08:18:20;3.92;;;3.53;;
7899;SDS011;3995;50.856;4.404;2023-02-28T08:20:50;4.43;;;3.45;;
7899;SDS011;3995;50.856;4.404;2023-02-28T08:23:17;4.13;;;3.53;;
7899;SDS011;3995;50.856;4.404;2023-02-28T08:25:44;4.47;;;3.65;;
7899;SDS011;3995;50.856;4.404;2023-02-28T08:28:11;3.63;;;3.17;;
7899;SDS011;3995;50.856;4.404;2023-02-28T08:30:39;5.25;;;2.85;;
7899;SDS011;3995;50.856;4.404;2023-02-28T08:33:06;6.13;;;3.95;;
7899;SDS011;3995;50.856;4.404;2023-02-28T08:35:35;5.20;;;2.92;;
7899;SDS011;3995;50.856;4.404;2023-02-28T08:38:03;11.35;;;3.70;;
7899;SDS011;3995;50.856;4.404;2023-02-28T08:40:31;4.00;;;3.25;;
7899;SDS011;3995;50.856;4.404;2023-02-28T08:42:58;5.32;;;3.30;;
7899;SDS011;3995;50.856;4.404;2023-02-28T08:45:25;5.40;;;3.13;;
7899;SDS011;3995;50.856;4.404;2023-02-28T08:47:53;6.78;;;2.90;;
7899;SDS011;3995;50.856;4.404;2023-02-28T08:50:21;3.97;;;2.83;;
7899;SDS011;3995;50.856;4.404;2023-02-28T08:52:49;5.47;;;3.30;;
7899;SDS011;3995;50.856;4.404;2023-02-28T08:55:17;3.47;;;2.90;;
7899;SDS011;3995;50.856;4.404;2023-02-28T08:57:44;4.85;;;2.70;;
7899;SDS011;3995;50.856;4.404;2023-02-28T09:00:12;4.75;;;3.47;;
7899;SDS011;3995;50.856;4.404;2023-02-28T09:02:39;3.17;;;2.80;;
7899;SDS011;3995;50.856;4.404;2023-02-28T09:05:08;7.15;;;3.13;;
7899;SDS011;3995;50.856;4.404;2023-02-28T09:07:36;3.60;;;2.65;;
7899;SDS011;3995;50.856;4.404;2023-02-28T09:10:04;5.80;;;2.67;;
7899;SDS011;3995;50.856;4.404;2023-02-28T09:12:33;3.45;;;2.72;;
7899;SDS011;3995;50.856;4.404;2023-02-28T09:15:01;5.22;;;3.50;;
7899;SDS011;3995;50.856;4.404;2023-02-28T09:17:29;4.70;;;3.17;;
7899;SDS011;3995;50.856;4.404;2023-02-28T09:19:56;3.13;;;2.67;;
7899;SDS011;3995;50.856;4.404;2023-02-28T09:22:24;5.28;;;2.95;;
7899;SDS011;3995;50.856;4.404;2023-02-28T09:24:51;3.90;;;3.15;;
7899;SDS011;3995;50.856;4.404;2023-02-28T09:27:18;3.70;;;2.92;;
7899;SDS011;3995;50.856;4.404;2023-02-28T09:29:48;5.60;;;2.92;;
7899;SDS011;3995;50.856;4.404;2023-02-28T09:32:15;4.85;;;3.38;;
7899;SDS011;3995;50.856;4.404;2023-02-28T09:34:43;11.88;;;3.08;;
7899;SDS011;3995;50.856;4.404;2023-02-28T09:37:10;2.80;;;2.15;;
7899;SDS011;3995;50.856;4.404;2023-02-28T09:39:37;8.35;;;2.42;;
7899;SDS011;3995;50.856;4.404;2023-02-28T09:42:11;2.95;;;2.25;;
7899;SDS011;3995;50.856;4.404;2023-02-28T09:44:49;8.57;;;3.10;;
7899;SDS011;3995;50.856;4.404;2023-02-28T09:47:18;6.53;;;2.20;;
7899;SDS011;3995;50.856;4.404;2023-02-28T09:49:53;2.40;;;2.10;;
7899;SDS011;3995;50.856;4.404;2023-02-28T09:52:24;5.05;;;2.10;;
7899;SDS011;3995;50.856;4.404;2023-02-28T09:54:56;2.78;;;1.65;;
7899;SDS011;3995;50.856;4.404;2023-02-28T09:57:29;2.20;;;2.00;;
7899;SDS011;3995;50.856;4.404;2023-02-28T10:00:07;4.28;;;2.30;;
7899;SDS011;3995;50.856;4.404;2023-02-28T10:02:45;3.25;;;2.13;;
7899;SDS011;3995;50.856;4.404;2023-02-28T10:05:26;3.70;;;1.88;;
7899;SDS011;3995;50.856;4.404;2023-02-28T10:08:00;4.82;;;2.20;;
7899;SDS011;3995;50.856;4.404;2023-02-28T10:10:35;6.95;;;2.15;;
7899;SDS011;3995;50.856;4.404;2023-02-28T10:13:11;3.45;;;1.90;;
7899;SDS011;3995;50.856;4.404;2023-02-28T10:15:45;4.50;;;2.90;;
7899;SDS011;3995;50.856;4.404;2023-02-28T10:18:16;5.63;;;1.92;;
7899;SDS011;3995;50.856;4.404;2023-02-28T10:20:49;2.65;;;2.03;;
7899;SDS011;3995;50.856;4.404;2023-02-28T10:23:20;2.67;;;2.05;;
7899;SDS011;3995;50.856;4.404;2023-02-28T10:25:53;4.10;;;2.75;;
7899;SDS011;3995;50.856;4.404;2023-02-28T10:28:25;4.72;;;1.70;;
7899;SDS011;3995;50.856;4.404;2023-02-28T10:31:00;7.78;;;2.20;;
7899;SDS011;3995;50.856;4.404;2023-02-28T10:33:29;9.90;;;1.98;;
7899;SDS011;3995;50.856;4.404;2023-02-28T10:35:59;3.13;;;1.80;;
7899;SDS011;3995;50.856;4.404;2023-02-28T10:38:28;2.45;;;1.60;;
7899;SDS011;3995;50.856;4.404;2023-02-28T10:41:04;3.13;;;1.85;;
7899;SDS011;3995;50.856;4.404;2023-02-28T10:43:32;4.25;;;2.40;;
7899;SDS011;3995;50.856;4.404;2023-02-28T10:46:02;8.65;;;3.17;;
7899;SDS011;3995;50.856;4.404;2023-02-28T10:48:36;4.68;;;2.08;;
7899;SDS011;3995;50.856;4.404;2023-02-28T10:51:05;2.00;;;1.58;;
7899;SDS011;3995;50.856;4.404;2023-02-28T10:53:35;8.60;;;2.00;;
7899;SDS011;3995;50.856;4.404;2023-02-28T10:56:12;2.28;;;1.60;;
7899;SDS011;3995;50.856;4.404;2023-02-28T10:58:46;3.22;;;1.70;;
7899;SDS011;3995;50.856;4.404;2023-02-28T11:01:19;5.78;;;2.20;;
7899;SDS011;3995;50.856;4.404;2023-02-28T11:03:50;15.48;;;2.10;;
7899;SDS011;3995;50.856;4.404;2023-02-28T11:06:19;2.00;;;1.50;;
7899;SDS011;3995;50.856;4.404;2023-02-28T11:08:49;7.45;;;2.70;;
7899;SDS011;3995;50.856;4.404;2023-02-28T11:11:18;8.63;;;2.75;;
7899;SDS011;3995;50.856;4.404;2023-02-28T11:13:50;4.90;;;2.67;;
7899;SDS011;3995;50.856;4.404;2023-02-28T11:16:21;6.53;;;1.70;;
7899;SDS011;3995;50.856;4.404;2023-02-28T11:18:57;5.63;;;1.95;;
7899;SDS011;3995;50.856;4.404;2023-02-28T11:21:25;3.30;;;2.38;;
7899;SDS011;3995;50.856;4.404;2023-02-28T11:23:57;1.70;;;1.60;;
7899;SDS011;3995;50.856;4.404;2023-02-28T11:26:35;4.45;;;2.30;;
7899;SDS011;3995;50.856;4.404;2023-02-28T11:29:18;2.50;;;2.20;;
7899;SDS011;3995;50.856;4.404;2023-02-28T11:32:11;3.72;;;2.53;;
7899;SDS011;3995;50.856;4.404;2023-02-28T11:34:41;3.90;;;2.03;;
7899;SDS011;3995;50.856;4.404;2023-02-28T11:37:11;4.20;;;2.05;;
7899;SDS011;3995;50.856;4.404;2023-02-28T11:39:41;4.72;;;1.95;;
7899;SDS011;3995;50.856;4.404;2023-02-28T11:45:11;2.65;;;2.10;;
7899;SDS011;3995;50.856;4.404;2023-02-28T11:47:51;9.25;;;2.60;;
7899;SDS011;3995;50.856;4.404;2023-02-28T11:50:33;4.47;;;2.30;;
7899;SDS011;3995;50.856;4.404;2023-02-28T11:53:14;6.00;;;2.50;;
7899;SDS011;3995;50.856;4.404;2023-02-28T11:55:51;6.03;;;2.10;;
7899;SDS011;3995;50.856;4.404;2023-02-28T11:58:27;10.63;;;2.20;;
7899;SDS011;3995;50.856;4.404;2023-02-28T12:01:09;6.80;;;2.60;;
7899;SDS011;3995;50.856;4.404;2023-02-28T12:03:47;9.43;;;2.60;;
7899;SDS011;3995;50.856;4.404;2023-02-28T12:06:25;5.10;;;2.30;;
7899;SDS011;3995;50.856;4.404;2023-02-28T12:09:02;5.57;;;2.60;;
7899;SDS011;3995;50.856;4.404;2023-02-28T12:11:44;3.90;;;1.80;;
7899;SDS011;3995;50.856;4.404;2023-02-28T12:14:22;6.55;;;4.00;;
7899;SDS011;3995;50.856;4.404;2023-02-28T12:17:15;6.32;;;3.38;;
7899;SDS011;3995;50.856;4.404;2023-02-28T12:19:54;4.80;;;1.80;;
7899;SDS011;3995;50.856;4.404;2023-02-28T12:22:29;2.55;;;1.98;;
7899;SDS011;3995;50.856;4.404;2023-02-28T12:28:06;6.15;;;2.30;;
7899;SDS011;3995;50.856;4.404;2023-02-28T12:30:36;3.97;;;2.22;;
7899;SDS011;3995;50.856;4.404;2023-02-28T12:33:12;3.35;;;1.98;;
7899;SDS011;3995;50.856;4.404;2023-02-28T12:35:47;4.75;;;2.45;;
7899;SDS011;3995;50.856;4.404;2023-02-28T12:38:18;11.68;;;8.55;;
7899;SDS011;3995;50.856;4.404;2023-02-28T12:40:48;9.90;;;2.88;;
7899;SDS011;3995;50.856;4.404;2023-02-28T12:43:20;4.93;;;2.17;;
7899;SDS011;3995;50.856;4.404;2023-02-28T12:45:53;2.67;;;1.75;;
7899;SDS011;3995;50.856;4.404;2023-02-28T12:48:26;4.18;;;1.80;;
7899;SDS011;3995;50.856;4.404;2023-02-28T12:50:59;7.18;;;2.75;;
7899;SDS011;3995;50.856;4.404;2023-02-28T12:53:28;4.07;;;2.40;;
7899;SDS011;3995;50.856;4.404;2023-02-28T12:56:09;5.15;;;2.33;;
7899;SDS011;3995;50.856;4.404;2023-02-28T12:58:41;2.67;;;1.77;;
7899;SDS011;3995;50.856;4.404;2023-02-28T13:01:26;4.53;;;1.83;;
7899;SDS011;3995;50.856;4.404;2023-02-28T13:10:48;1.92;;;1.73;;
7899;SDS011;3995;50.856;4.404;2023-02-28T13:13:20;1.85;;;1.58;;
7899;SDS011;3995;50.856;4.404;2023-02-28T13:16:02;5.82;;;2.63;;
7899;SDS011;3995;50.856;4.404;2023-02-28T13:18:33;5.18;;;1.90;;
7899;SDS011;3995;50.856;4.404;2023-02-28T13:21:02;5.65;;;2.38;;
7899;SDS011;3995;50.856;4.404;2023-02-28T13:23:55;8.35;;;2.55;;
7899;SDS011;3995;50.856;4.404;2023-02-28T13:29:33;6.13;;;1.77;;
7899;SDS011;3995;50.856;4.404;2023-02-28T13:38:17;5.15;;;3.05;;
7899;SDS011;3995;50.856;4.404;2023-02-28T13:40:49;2.28;;;1.42;;
7899;SDS011;3995;50.856;4.404;2023-02-28T13:43:17;3.65;;;2.30;;
7899;SDS011;3995;50.856;4.404;2023-02-28T13:46:05;2.85;;;1.77;;
7899;SDS011;3995;50.856;4.404;2023-02-28T13:48:36;2.45;;;1.77;;
7899;SDS011;3995;50.856;4.404;2023-02-28T13:54:07;10.02;;;2.35;;
7899;SDS011;3995;50.856;4.404;2023-02-28T13:56:52;4.60;;;1.60;;
7899;SDS011;3995;50.856;4.404;2023-02-28T13:59:31;7.22;;;1.80;;
7899;SDS011;3995;50.856;4.404;2023-02-28T14:05:09;18.45;;;2.85;;
7899;SDS011;3995;50.856;4.404;2023-02-28T14:07:43;6.63;;;2.13;;
7899;SDS011;3995;50.856;4.404;2023-02-28T14:10:20;10.10;;;2.15;;
7899;SDS011;3995;50.856;4.404;2023-02-28T14:12:58;2.63;;;1.80;;
7899;SDS011;3995;50.856;4.404;2023-02-28T14:18:23;7.57;;;2.00;;
7899;SDS011;3995;50.856;4.404;2023-02-28T14:21:00;3.67;;;2.20;;
7899;SDS011;3995;50.856;4.404;2023-02-28T14:23:42;4.95;;;2.50;;
7899;SDS011;3995;50.856;4.404;2023-02-28T14:26:25;3.70;;;2.42;;
7899;SDS011;3995;50.856;4.404;2023-02-28T14:32:02;3.95;;;2.00;;
7899;SDS011;3995;50.856;4.404;2023-02-28T14:34:41;6.18;;;2.20;;
7899;SDS011;3995;50.856;4.404;2023-02-28T14:37:16;9.45;;;2.00;;
7899;SDS011;3995;50.856;4.404;2023-02-28T14:39:49;5.53;;;1.70;;
7899;SDS011;3995;50.856;4.404;2023-02-28T14:42:27;5.65;;;1.65;;
7899;SDS011;3995;50.856;4.404;2023-02-28T14:44:55;5.13;;;2.00;;
7899;SDS011;3995;50.856;4.404;2023-02-28T14:47:22;9.23;;;1.85;;
7899;SDS011;3995;50.856;4.404;2023-02-28T14:49:54;8.32;;;2.40;;
7899;SDS011;3995;50.856;4.404;2023-02-28T14:52:22;3.42;;;1.90;;
7899;SDS011;3995;50.856;4.404;2023-02-28T14:54:52;6.05;;;2.15;;
7899;SDS011;3995;50.856;4.404;2023-02-28T14:57:22;2.13;;;1.80;;
7899;SDS011;3995;50.856;4.404;2023-02-28T15:00:00;2.28;;;2.08;;
7899;SDS011;3995;50.856;4.404;2023-02-28T15:02:36;2.95;;;1.60;;
7899;SDS011;3995;50.856;4.404;2023-02-28T15:05:16;4.22;;;1.80;;
7899;SDS011;3995;50.856;4.404;2023-02-28T15:08:06;6.40;;;2.08;;
7899;SDS011;3995;50.856;4.404;2023-02-28T15:10:38;4.57;;;2.20;;
7899;SDS011;3995;50.856;4.404;2023-02-28T15:13:10;1.85;;;1.50;;
7899;SDS011;3995;50.856;4.404;2023-02-28T15:15:42;2.83;;;2.15;;
7899;SDS011;3995;50.856;4.404;2023-02-28T15:18:16;3.47;;;2.30;;
7899;SDS011;3995;50.856;4.404;2023-02-28T15:20:55;2.20;;;1.90;;
7899;SDS011;3995;50.856;4.404;2023-02-28T15:23:23;2.22;;;2.03;;
7899;SDS011;3995;50.856;4.404;2023-02-28T15:25:51;5.40;;;1.90;;
7899;SDS011;3995;50.856;4.404;2023-02-28T15:28:20;3.83;;;2.10;;
7899;SDS011;3995;50.856;4.404;2023-02-28T15:30:57;4.00;;;2.85;;
7899;SDS011;3995;50.856;4.404;2023-02-28T15:33:26;4.70;;;1.90;;
7899;SDS011;3995;50.856;4.404;2023-02-28T15:36:12;6.28;;;2.30;;
7899;SDS011;3995;50.856;4.404;2023-02-28T15:38:50;3.55;;;2.10;;
7899;SDS011;3995;50.856;4.404;2023-02-28T15:41:22;8.68;;;1.98;;
7899;SDS011;3995;50.856;4.404;2023-02-28T15:46:41;6.32;;;2.40;;
7899;SDS011;3995;50.856;4.404;2023-02-28T15:49:16;3.38;;;2.50;;
7899;SDS011;3995;50.856;4.404;2023-02-28T15:51:49;2.50;;;1.77;;
7899;SDS011;3995;50.856;4.404;2023-02-28T15:54:19;10.68;;;2.55;;
7899;SDS011;3995;50.856;4.404;2023-02-28T15:56:50;3.05;;;2.17;;
7899;SDS011;3995;50.856;4.404;2023-02-28T15:59:20;3.28;;;2.30;;
7899;SDS011;3995;50.856;4.404;2023-02-28T16:02:02;4.18;;;2.20;;
7899;SDS011;3995;50.856;4.404;2023-02-28T16:04:54;2.55;;;2.05;;
7899;SDS011;3995;50.856;4.404;2023-02-28T16:07:24;3.55;;;2.33;;
7899;SDS011;3995;50.856;4.404;2023-02-28T16:09:55;2.53;;;2.10;;
7899;SDS011;3995;50.856;4.404;2023-02-28T16:12:24;4.13;;;2.20;;
7899;SDS011;3995;50.856;4.404;2023-02-28T16:14:53;1.98;;;1.70;;
7899;SDS011;3995;50.856;4.404;2023-02-28T16:17:22;7.90;;;2.38;;
7899;SDS011;3995;50.856;4.404;2023-02-28T16:19:51;3.75;;;2.35;;
7899;SDS011;3995;50.856;4.404;2023-02-28T16:22:19;4.47;;;2.35;;
7899;SDS011;3995;50.856;4.404;2023-02-28T16:24:48;2.17;;;1.70;;